Météo Nord-Pas-de-Calais   La météo au plus près de chez vous

Station météorologique

Observations météo à Embrun (05046)

05046001 873 m Dernier relevé à 21:36
23.9°C
Humidité 42 % Vent 6.8 km/h

Journée consultée

Vendredi 4 Septembre 2026

Synthèse de la journée

Périodes de référence en UTC

Température maximale

32.2°C

à 17:00

06h 06h

Température minimale

15.2°C

à 06:36

18h 18h

Rafale maximale

32 km/h

à 15:54

00h 00h

Précipitations

0 mm

Cumul quotidien

06h 06h

Ensoleillement

10h 43 mins

Durée quotidienne

00h 00h

Graphiques de la journée

Heure locale Réduire

Données détaillées

Relevés météo

Pas de 6 minutes Afficher les relevés infra-horaires
Relevés météo détaillés à Embrun pour le Vendredi 4 Septembre 2026
Heure Température °C Point de rosée °C Humidité % Vent moyen (raf.), km/h Précipitations mm Température à 10 cm °C Température à 20 cm °C Température à 50 cm °C Température à 100 cm °C Hauteur neige cm Ensoleillement min Rayonnement global W/m²
21:36 23.9 °C 11.2 °C 45 % 5 km/h (9 km/h) 0 mm0 mm 23.5 °C 22.1 °C 19.9 °C 19.4 °C 0 cm 0 min 0 W/m²
21:30 23.8 °C 11.5 °C 46 % 3 km/h (9 km/h) 0 mm0 mm 23.6 °C 22.1 °C 19.9 °C 19.4 °C 0 cm 0 min 0 W/m²
21:24 24 °C 11.3 °C 45 % 3 km/h (7 km/h) 0 mm0 mm 23.6 °C 22.1 °C 19.9 °C 19.4 °C 0 cm 0 min 0 W/m²
21:18 24.3 °C 11.6 °C 45 % 3 km/h (7 km/h) 0 mm0 mm 23.6 °C 22 °C 19.9 °C 19.4 °C 0 cm 0 min 0 W/m²
21:12 24.6 °C 11.9 °C 45 % 5 km/h (10 km/h) 0 mm0 mm 23.6 °C 22 °C 19.9 °C 19.4 °C 0 cm 0 min 0 W/m²
21:06 24.8 °C 11.7 °C 44 % 6 km/h (10 km/h) 0 mm0 mm 23.6 °C 22 °C 19.9 °C 19.4 °C 0 cm 0 min 0 W/m²
21:00 24.9 °C 11.5 °C 43 % 6 km/h (11 km/h) 0 mm0 mm 23.7 °C 22 °C 19.9 °C 19.4 °C 0 cm 0 min 0 W/m²
20:54 25.1 °C 11.6 °C 43 % 7 km/h (12 km/h) 0 mm0 mm 23.7 °C 22 °C 19.9 °C 19.4 °C 0 cm 0 min 0 W/m²
20:48 25.1 °C 11.6 °C 43 % 8 km/h (10 km/h) 0 mm0 mm 23.7 °C 22 °C 19.9 °C 19.4 °C 0 cm 0 min 0 W/m²
20:42 25.3 °C 11.8 °C 43 % 7 km/h (10 km/h) 0 mm0 mm 23.7 °C 22 °C 19.9 °C 19.4 °C 0 cm 0 min 0 W/m²
20:36 25.5 °C 11.6 °C 42 % 7 km/h (13 km/h) 0 mm0 mm 23.7 °C 21.9 °C 19.9 °C 19.4 °C 0 cm 0 min 0 W/m²
20:30 25.8 °C 11.9 °C 42 % 9 km/h (13 km/h) 0 mm0 mm 23.7 °C 21.9 °C 19.8 °C 19.4 °C 0 cm 0 min 0 W/m²
20:24 26 °C 11.7 °C 41 % 9 km/h (13 km/h) 0 mm0 mm 23.7 °C 21.9 °C 19.8 °C 19.4 °C 0 cm 0 min 0 W/m²
20:18 26.1 °C 11.8 °C 41 % 7 km/h (13 km/h) 0 mm0 mm 23.7 °C 21.9 °C 19.8 °C 19.4 °C 0 cm 0 min 0 W/m²
20:12 26 °C 12.4 °C 43 % 6 km/h (10 km/h) 0 mm0 mm 23.7 °C 21.9 °C 19.8 °C 19.4 °C 0 cm 0 min 0 W/m²
20:06 26.2 °C 12.3 °C 42 % 6 km/h (10 km/h) 0 mm0 mm 23.7 °C 21.8 °C 19.9 °C 19.4 °C 0 cm 0 min 0 W/m²
20:00 26.5 °C 12.2 °C 41 % 5 km/h (8 km/h) 0 mm0 mm 23.7 °C 21.8 °C 19.8 °C 19.4 °C 0 cm 0 min 0 W/m²
19:54 26.6 °C 11.9 °C 40 % 5 km/h (8 km/h) 0 mm0 mm 23.8 °C 21.8 °C 19.8 °C 19.4 °C 0 cm 0 min 0 W/m²
19:48 26.8 °C 12.1 °C 40 % 5 km/h (10 km/h) 0 mm0 mm 23.8 °C 21.7 °C 19.8 °C 19.4 °C 0 cm 0 min 0 W/m²
19:42 27.1 °C 12.3 °C 40 % 7 km/h (13 km/h) 0 mm0 mm 23.7 °C 21.7 °C 19.8 °C 19.4 °C 0 cm 0 min 0 W/m²
19:36 27.7 °C 12.1 °C 38 % 9 km/h (14 km/h) 0 mm0 mm 23.8 °C 21.7 °C 19.8 °C 19.4 °C 0 cm 0 min 0.2 W/m²
19:30 28 °C 12.4 °C 38 % 10 km/h (14 km/h) 0 mm0 mm 23.7 °C 21.7 °C 19.8 °C 19.4 °C 0 cm 0 min 3.9 W/m²
19:24 28.3 °C 12.2 °C 37 % 10 km/h (15 km/h) 0 mm0 mm 23.7 °C 21.6 °C 19.8 °C 19.4 °C 0 cm 0 min 4.5 W/m²
19:18 28.8 °C 11.8 °C 35 % 11 km/h (17 km/h) 0 mm0 mm 23.7 °C 21.6 °C 19.8 °C 19.4 °C 0 cm 0 min 5.1 W/m²
19:12 29.1 °C 11.6 °C 34 % 11 km/h (22 km/h) 0 mm0 mm 23.7 °C 21.6 °C 19.8 °C 19.4 °C 0 cm 4 min 26.3 W/m²
19:06 29.5 °C 12 °C 34 % 10 km/h (22 km/h) 0 mm0 mm 23.7 °C 21.5 °C 19.8 °C 19.4 °C 0 cm 6 min 40.9 W/m²
19:00 29.8 °C 11.3 °C 32 % 10 km/h (18 km/h) 0 mm0 mm 23.7 °C 21.5 °C 19.8 °C 19.4 °C 0 cm 6 min 46.7 W/m²
18:54 30 °C 11 °C 31 % 11 km/h (18 km/h) 0 mm0 mm 23.7 °C 21.5 °C 19.8 °C 19.4 °C 0 cm 6 min 52.5 W/m²
18:48 30.3 °C 10.8 °C 30 % 10 km/h (18 km/h) 0 mm0 mm 23.7 °C 21.5 °C 19.8 °C 19.4 °C 0 cm 6 min 58.6 W/m²
18:42 30.6 °C 10 °C 28 % 12 km/h (21 km/h) 0 mm0 mm 23.6 °C 21.4 °C 19.8 °C 19.4 °C 0 cm 6 min 65 W/m²
18:36 30.4 °C 10.4 °C 29 % 13 km/h (21 km/h) 0 mm0 mm 23.6 °C 21.4 °C 19.8 °C 19.4 °C 0 cm 6 min 71.2 W/m²
18:30 30.6 °C 10.5 °C 29 % 13 km/h (21 km/h) 0 mm0 mm 23.6 °C 21.4 °C 19.8 °C 19.4 °C 0 cm 6 min 77.6 W/m²
18:24 30.7 °C 10.1 °C 28 % 14 km/h (21 km/h) 0 mm0 mm 23.6 °C 21.3 °C 19.8 °C 19.4 °C 0 cm 6 min 83.5 W/m²
18:18 31 °C 9.8 °C 27 % 13 km/h (25 km/h) 0 mm0 mm 23.5 °C 21.3 °C 19.9 °C 19.4 °C 0 cm 6 min 89.3 W/m²
18:12 31.3 °C 10.1 °C 27 % 11 km/h (25 km/h) 0 mm0 mm 23.5 °C 21.2 °C 19.8 °C 19.4 °C 0 cm 6 min 95.4 W/m²
18:06 31.4 °C 8.4 °C 24 % 11 km/h (23 km/h) 0 mm0 mm 23.4 °C 21.2 °C 19.9 °C 19.4 °C 0 cm 6 min 101.1 W/m²
18:00 31.5 °C 9.7 °C 26 % 11 km/h (24 km/h) 0 mm0 mm 23.4 °C 21.2 °C 19.8 °C 19.4 °C 0 cm 6 min 106.5 W/m²
17:54 31.6 °C 9.2 °C 25 % 14 km/h (25 km/h) 0 mm0 mm 23.3 °C 21.1 °C 19.9 °C 19.4 °C 0 cm 6 min 112.6 W/m²
17:48 31.4 °C 9 °C 25 % 15 km/h (27 km/h) 0 mm0 mm 23.3 °C 21.1 °C 19.8 °C 19.4 °C 0 cm 6 min 118.2 W/m²
17:42 31.6 °C 9.2 °C 25 % 14 km/h (24 km/h) 0 mm0 mm 23.2 °C 21.1 °C 19.8 °C 19.4 °C 0 cm 6 min 123.5 W/m²
17:36 31.8 °C 8.7 °C 24 % 12 km/h (21 km/h) 0 mm0 mm 23.2 °C 21 °C 19.9 °C 19.4 °C 0 cm 6 min 128.8 W/m²
17:30 31.8 °C 9.9 °C 26 % 12 km/h (22 km/h) 0 mm0 mm 23.1 °C 21 °C 19.9 °C 19.4 °C 0 cm 6 min 134 W/m²
17:24 31.9 °C 9.4 °C 25 % 14 km/h (24 km/h) 0 mm0 mm 23.1 °C 20.9 °C 19.9 °C 19.4 °C 0 cm 6 min 139.1 W/m²
17:18 31.8 °C 8.7 °C 24 % 15 km/h (24 km/h) 0 mm0 mm 23 °C 20.9 °C 19.9 °C 19.4 °C 0 cm 6 min 144.2 W/m²
17:12 31.8 °C 9.9 °C 26 % 15 km/h (26 km/h) 0 mm0 mm 23 °C 20.9 °C 19.9 °C 19.4 °C 0 cm 6 min 149.2 W/m²
17:06 31.9 °C 9.4 °C 25 % 13 km/h (26 km/h) 0 mm0 mm 22.9 °C 20.8 °C 19.9 °C 19.4 °C 0 cm 6 min 154.3 W/m²
17:00 32.2 °C 8.4 °C 23 % 13 km/h (31 km/h) 0 mm0 mm 22.8 °C 20.8 °C 19.9 °C 19.4 °C 0 cm 6 min 159.8 W/m²
16:54 32 °C 8.3 °C 23 % 14 km/h (27 km/h) 0 mm0 mm 22.8 °C 20.8 °C 19.9 °C 19.4 °C 0 cm 6 min 164.5 W/m²
16:48 32 °C 10.1 °C 26 % 13 km/h (24 km/h) 0 mm0 mm 22.7 °C 20.7 °C 19.9 °C 19.4 °C 0 cm 6 min 169.7 W/m²
16:42 32.1 °C 8.4 °C 23 % 15 km/h (24 km/h) 0 mm0 mm 22.6 °C 20.7 °C 19.9 °C 19.4 °C 0 cm 6 min 175.1 W/m²
16:36 32 °C 8.9 °C 24 % 16 km/h (30 km/h) 0 mm0 mm 22.6 °C 20.7 °C 19.9 °C 19.4 °C 0 cm 6 min 180.5 W/m²
16:30 31.9 °C 8.8 °C 24 % 17 km/h (30 km/h) 0 mm0 mm 22.5 °C 20.6 °C 19.9 °C 19.4 °C 0 cm 6 min 185.8 W/m²
16:24 31.9 °C 10.6 °C 27 % 16 km/h (31 km/h) 0 mm0 mm 22.4 °C 20.6 °C 19.9 °C 19.4 °C 0 cm 6 min 190.6 W/m²
16:18 32.1 °C 9.6 °C 25 % 15 km/h (31 km/h) 0 mm0 mm 22.4 °C 20.6 °C 19.9 °C 19.4 °C 0 cm 6 min 195.5 W/m²
16:12 31.9 °C 8.8 °C 24 % 16 km/h (30 km/h) 0 mm0 mm 22.3 °C 20.5 °C 19.9 °C 19.4 °C 0 cm 6 min 200 W/m²
16:06 31.6 °C 10.3 °C 27 % 15 km/h (30 km/h) 0 mm0 mm 22.2 °C 20.5 °C 19.9 °C 19.4 °C 0 cm 6 min 204.1 W/m²
16:00 31.6 °C 10.9 °C 28 % 18 km/h (32 km/h) 0 mm0 mm 22.1 °C 20.5 °C 19.9 °C 19.4 °C 0 cm 6 min 207.5 W/m²
15:54 31.5 °C 9.7 °C 26 % 18 km/h (32 km/h) 0 mm0 mm 22 °C 20.4 °C 19.9 °C 19.4 °C 0 cm 6 min 210.9 W/m²
15:48 31.5 °C 11.3 °C 29 % 18 km/h (32 km/h) 0 mm0 mm 22 °C 20.4 °C 19.9 °C 19.4 °C 0 cm 6 min 216 W/m²
15:42 31.6 °C 10.9 °C 28 % 16 km/h (32 km/h) 0 mm0 mm 21.9 °C 20.4 °C 19.9 °C 19.4 °C 0 cm 6 min 219.6 W/m²
15:36 32 °C 10.1 °C 26 % 16 km/h (31 km/h) 0 mm0 mm 21.8 °C 20.4 °C 19.9 °C 19.4 °C 0 cm 6 min 223.3 W/m²
15:30 31.5 °C 10.2 °C 27 % 18 km/h (31 km/h) 0 mm0 mm 21.7 °C 20.3 °C 19.9 °C 19.4 °C 0 cm 6 min 226.4 W/m²
15:24 31.4 °C 11.7 °C 30 % 17 km/h (28 km/h) 0 mm0 mm 21.6 °C 20.3 °C 19.9 °C 19.4 °C 0 cm 6 min 229.2 W/m²
15:18 31.2 °C 11.6 °C 30 % 15 km/h (28 km/h) 0 mm0 mm 21.6 °C 20.3 °C 19.9 °C 19.4 °C 0 cm 6 min 231.6 W/m²
15:12 31.2 °C 13 °C 33 % 15 km/h (27 km/h) 0 mm0 mm 21.5 °C 20.2 °C 19.9 °C 19.4 °C 0 cm 6 min 234.6 W/m²
15:06 31.3 °C 12.6 °C 32 % 17 km/h (31 km/h) 0 mm0 mm 21.4 °C 20.2 °C 19.9 °C 19.4 °C 0 cm 6 min 237.3 W/m²
15:00 31.2 °C 12.1 °C 31 % 15 km/h (27 km/h) 0 mm0 mm 21.3 °C 20.2 °C 19.9 °C 19.4 °C 0 cm 6 min 239.8 W/m²
14:54 31.5 °C 12.3 °C 31 % 13 km/h (27 km/h) 0 mm0 mm 21.2 °C 20.2 °C 19.9 °C 19.4 °C 0 cm 6 min 242.1 W/m²
14:48 31.7 °C 13 °C 32 % 14 km/h (28 km/h) 0 mm0 mm 21.1 °C 20.1 °C 19.9 °C 19.4 °C 0 cm 6 min 244.6 W/m²
14:42 31 °C 12.8 °C 33 % 14 km/h (28 km/h) 0 mm0 mm 21 °C 20.1 °C 19.9 °C 19.4 °C 0 cm 6 min 246.6 W/m²
14:36 31.3 °C 13.1 °C 33 % 14 km/h (29 km/h) 0 mm0 mm 20.9 °C 20.1 °C 19.9 °C 19.4 °C 0 cm 6 min 248.6 W/m²
14:30 30.5 °C 13.3 °C 35 % 17 km/h (29 km/h) 0 mm0 mm 20.9 °C 20.1 °C 19.9 °C 19.4 °C 0 cm 6 min 250.3 W/m²
14:24 30.4 °C 12.8 °C 34 % 18 km/h (32 km/h) 0 mm0 mm 20.8 °C 20 °C 19.9 °C 19.4 °C 0 cm 6 min 251.7 W/m²
14:18 30.2 °C 12.1 °C 33 % 18 km/h (29 km/h) 0 mm0 mm 20.7 °C 20 °C 19.9 °C 19.4 °C 0 cm 6 min 252.9 W/m²
14:12 30.6 °C 12.5 °C 33 % 17 km/h (29 km/h) 0 mm0 mm 20.6 °C 20 °C 19.9 °C 19.4 °C 0 cm 6 min 253.9 W/m²
14:06 30.7 °C 12.1 °C 32 % 15 km/h (30 km/h) 0 mm0 mm 20.5 °C 20 °C 19.9 °C 19.4 °C 0 cm 6 min 254.9 W/m²
14:00 31 °C 11.9 °C 31 % 14 km/h (27 km/h) 0 mm0 mm 20.5 °C 20 °C 19.9 °C 19.4 °C 0 cm 6 min 255.5 W/m²
13:54 30.8 °C 11.2 °C 30 % 14 km/h (28 km/h) 0 mm0 mm 20.4 °C 20 °C 19.9 °C 19.4 °C 0 cm 6 min 256.1 W/m²
13:48 30.5 °C 11 °C 30 % 15 km/h (27 km/h) 0 mm0 mm 20.3 °C 19.9 °C 19.9 °C 19.4 °C 0 cm 6 min 257 W/m²
13:42 30.5 °C 11.5 °C 31 % 13 km/h (26 km/h) 0 mm0 mm 20.2 °C 19.9 °C 20 °C 19.4 °C 0 cm 6 min 257.7 W/m²
13:36 29.6 °C 11.6 °C 33 % 13 km/h (28 km/h) 0 mm0 mm 20.1 °C 19.9 °C 20 °C 19.4 °C 0 cm 6 min 258 W/m²
13:30 29.2 °C 9.3 °C 29 % 14 km/h (27 km/h) 0 mm0 mm 20.1 °C 19.9 °C 20 °C 19.4 °C 0 cm 6 min 258.2 W/m²
13:24 28.5 °C 9.2 °C 30 % 14 km/h (26 km/h) 0 mm0 mm 20 °C 19.9 °C 20 °C 19.4 °C 0 cm 6 min 258 W/m²
13:18 28.4 °C 11 °C 34 % 12 km/h (21 km/h) 0 mm0 mm 19.9 °C 19.9 °C 20 °C 19.4 °C 0 cm 6 min 257.4 W/m²
13:12 28.5 °C 10.7 °C 33 % 9 km/h (18 km/h) 0 mm0 mm 19.8 °C 19.9 °C 20 °C 19.4 °C 0 cm 6 min 257.2 W/m²
13:06 27.5 °C 10.2 °C 34 % 11 km/h (17 km/h) 0 mm0 mm 19.8 °C 19.9 °C 20 °C 19.4 °C 0 cm 6 min 256.8 W/m²
13:00 27.8 °C 9.6 °C 32 % 9 km/h (17 km/h) 0 mm0 mm 19.7 °C 19.9 °C 20 °C 19.4 °C 0 cm 6 min 256.1 W/m²
12:54 27.8 °C 12.2 °C 38 % 9 km/h (16 km/h) 0 mm0 mm 19.6 °C 19.9 °C 20 °C 19.4 °C 0 cm 6 min 254.5 W/m²
12:48 27.8 °C 10 °C 33 % 9 km/h (16 km/h) 0 mm0 mm 19.6 °C 19.9 °C 20 °C 19.4 °C 0 cm 6 min 253.1 W/m²
12:42 28 °C 9.8 °C 32 % 9 km/h (15 km/h) 0 mm0 mm 19.5 °C 19.9 °C 20 °C 19.4 °C 0 cm 6 min 251.9 W/m²
12:36 28.7 °C 10.4 °C 32 % 7 km/h (15 km/h) 0 mm0 mm 19.5 °C 19.9 °C 20 °C 19.4 °C 0 cm 6 min 250.4 W/m²
12:30 28.8 °C 11.8 °C 35 % 8 km/h (15 km/h) 0 mm0 mm 19.4 °C 19.9 °C 20 °C 19.4 °C 0 cm 6 min 248.7 W/m²
12:24 28.8 °C 10.9 °C 33 % 7 km/h (15 km/h) 0 mm0 mm 19.4 °C 19.9 °C 20 °C 19.4 °C 0 cm 6 min 246.8 W/m²
12:18 28.6 °C 12.1 °C 36 % 6 km/h (11 km/h) 0 mm0 mm 19.3 °C 19.9 °C 20 °C 19.4 °C 0 cm 6 min 244.8 W/m²
12:12 28.1 °C 10.3 °C 33 % 5 km/h (10 km/h) 0 mm0 mm 19.3 °C 19.9 °C 20 °C 19.4 °C 0 cm 6 min 242.1 W/m²
12:06 28.1 °C 9.4 °C 31 % 5 km/h (11 km/h) 0 mm0 mm 19.2 °C 19.9 °C 20 °C 19.4 °C 0 cm 6 min 239.6 W/m²
12:00 27.8 °C 9.1 °C 31 % 5 km/h (10 km/h) 0 mm0 mm 19.2 °C 19.9 °C 20 °C 19.4 °C 0 cm 6 min 236.9 W/m²
11:54 27.9 °C 10.6 °C 34 % 5 km/h (11 km/h) 0 mm0 mm 19.1 °C 20 °C 20 °C 19.4 °C 0 cm 6 min 233.8 W/m²
11:48 27.8 °C 10.9 °C 35 % 5 km/h (11 km/h) 0 mm0 mm 19.1 °C 19.9 °C 20 °C 19.4 °C 0 cm 6 min 230.8 W/m²
11:42 27 °C 10.7 °C 36 % 6 km/h (12 km/h) 0 mm0 mm 19.1 °C 20 °C 20 °C 19.4 °C 0 cm 6 min 227.5 W/m²
11:36 26.6 °C 9.4 °C 34 % 5 km/h (10 km/h) 0 mm0 mm 19.1 °C 20 °C 20 °C 19.4 °C 0 cm 6 min 223.8 W/m²
11:30 26.3 °C 9.6 °C 35 % 6 km/h (10 km/h) 0 mm0 mm 19 °C 20 °C 20 °C 19.4 °C 0 cm 6 min 220.2 W/m²
11:24 27 °C 10.7 °C 36 % 6 km/h (12 km/h) 0 mm0 mm 19 °C 20 °C 20 °C 19.4 °C 0 cm 6 min 216.5 W/m²
11:18 26.3 °C 10 °C 36 % 6 km/h (12 km/h) 0 mm0 mm 19 °C 20 °C 20 °C 19.4 °C 0 cm 6 min 212.6 W/m²
11:12 26.1 °C 9.9 °C 36 % 6 km/h (13 km/h) 0 mm0 mm 19 °C 20 °C 20 °C 19.4 °C 0 cm 6 min 208.4 W/m²
11:06 25.5 °C 10.1 °C 38 % 7 km/h (16 km/h) 0 mm0 mm 19 °C 20 °C 20 °C 19.4 °C 0 cm 6 min 204.6 W/m²
11:00 25.4 °C 10.8 °C 40 % 10 km/h (18 km/h) 0 mm0 mm 19 °C 20 °C 20 °C 19.4 °C 0 cm 6 min 200.8 W/m²
10:54 25 °C 10.1 °C 39 % 9 km/h (18 km/h) 0 mm0 mm 19 °C 20.1 °C 20 °C 19.4 °C 0 cm 6 min 196.9 W/m²
10:48 24.7 °C 9 °C 37 % 9 km/h (16 km/h) 0 mm0 mm 19 °C 20.1 °C 20 °C 19.4 °C 0 cm 6 min 192.8 W/m²
10:42 23.9 °C 9.8 °C 41 % 12 km/h (26 km/h) 0 mm0 mm 19 °C 20.1 °C 20 °C 19.4 °C 0 cm 6 min 188.5 W/m²
10:36 23.7 °C 8.9 °C 39 % 14 km/h (26 km/h) 0 mm0 mm 19 °C 20.1 °C 20 °C 19.4 °C 0 cm 6 min 184 W/m²
10:30 23.2 °C 9.9 °C 43 % 14 km/h (25 km/h) 0 mm0 mm 19 °C 20.2 °C 20 °C 19.4 °C 0 cm 6 min 179.1 W/m²
10:24 23 °C 9.4 °C 42 % 13 km/h (22 km/h) 0 mm0 mm 19 °C 20.2 °C 20 °C 19.4 °C 0 cm 6 min 174 W/m²
10:18 23.1 °C 9.5 °C 42 % 12 km/h (22 km/h) 0 mm0 mm 19 °C 20.2 °C 20 °C 19.4 °C 0 cm 6 min 168.9 W/m²
10:12 22.7 °C 9.1 °C 42 % 12 km/h (19 km/h) 0 mm0 mm 19 °C 20.2 °C 20 °C 19.4 °C 0 cm 6 min 163.4 W/m²
10:06 22.8 °C 9.9 °C 44 % 11 km/h (19 km/h) 0 mm0 mm 19 °C 20.2 °C 20 °C 19.4 °C 0 cm 6 min 158.2 W/m²
10:00 22.5 °C 9.6 °C 44 % 13 km/h (25 km/h) 0 mm0 mm 19 °C 20.2 °C 20 °C 19.4 °C 0 cm 6 min 152.8 W/m²
09:54 22.1 °C 9.3 °C 44 % 17 km/h (25 km/h) 0 mm0 mm 19.1 °C 20.2 °C 20 °C 19.4 °C 0 cm 6 min 147.2 W/m²
09:48 21.5 °C 9.1 °C 45 % 15 km/h (28 km/h) 0 mm0 mm 19.1 °C 20.3 °C 20 °C 19.4 °C 0 cm 6 min 141.4 W/m²
09:42 21.1 °C 8.7 °C 45 % 14 km/h (23 km/h) 0 mm0 mm 19.1 °C 20.3 °C 20 °C 19.4 °C 0 cm 6 min 135.7 W/m²
09:36 20.9 °C 8.8 °C 46 % 18 km/h (27 km/h) 0 mm0 mm 19.1 °C 20.3 °C 20 °C 19.4 °C 0 cm 6 min 130.2 W/m²
09:30 20.6 °C 8.6 °C 46 % 17 km/h (27 km/h) 0 mm0 mm 19.2 °C 20.3 °C 20 °C 19.4 °C 0 cm 6 min 124.7 W/m²
09:24 20.3 °C 9.2 °C 49 % 15 km/h (23 km/h) 0 mm0 mm 19.2 °C 20.3 °C 20 °C 19.4 °C 0 cm 6 min 119.1 W/m²
09:18 20.1 °C 8.7 °C 48 % 16 km/h (24 km/h) 0 mm0 mm 19.2 °C 20.3 °C 20 °C 19.4 °C 0 cm 6 min 113.7 W/m²
09:12 19.8 °C 8.5 °C 48 % 15 km/h (24 km/h) 0 mm0 mm 19.3 °C 20.4 °C 20 °C 19.4 °C 0 cm 6 min 108.2 W/m²
09:06 19.7 °C 8.7 °C 49 % 14 km/h (23 km/h) 0 mm0 mm 19.3 °C 20.4 °C 20 °C 19.4 °C 0 cm 6 min 102.8 W/m²
09:00 18.9 °C 9.1 °C 53 % 14 km/h (25 km/h) 0 mm0 mm 19.3 °C 20.4 °C 20 °C 19.4 °C 0 cm 6 min 97.2 W/m²
08:54 18.5 °C 8.5 °C 52 % 15 km/h (25 km/h) 0 mm0 mm 19.3 °C 20.4 °C 20 °C 19.4 °C 0 cm 6 min 91.5 W/m²
08:48 18.1 °C 8.4 °C 53 % 13 km/h (23 km/h) 0 mm0 mm 19.4 °C 20.4 °C 20 °C 19.4 °C 0 cm 6 min 85.6 W/m²
08:42 17.6 °C 8.4 °C 55 % 15 km/h (27 km/h) 0 mm0 mm 19.4 °C 20.4 °C 20 °C 19.4 °C 0 cm 6 min 79.8 W/m²
08:36 17 °C 8.2 °C 56 % 17 km/h (27 km/h) 0 mm0 mm 19.4 °C 20.4 °C 20 °C 19.4 °C 0 cm 6 min 73.8 W/m²
08:30 16.1 °C 7.8 °C 58 % 13 km/h (23 km/h) 0 mm0 mm 19.4 °C 20.5 °C 20 °C 19.4 °C 0 cm 3 min 37.6 W/m²
08:24 15.8 °C 7.5 °C 58 % 13 km/h (18 km/h) 0 mm0 mm 19.5 °C 20.5 °C 20 °C 19.4 °C 0 cm 0 min 7.8 W/m²
08:18 15.8 °C 7.3 °C 57 % 14 km/h (19 km/h) 0 mm0 mm 19.5 °C 20.5 °C 20 °C 19.4 °C 0 cm 0 min 7.3 W/m²
08:12 15.7 °C 7.5 °C 58 % 12 km/h (19 km/h) 0 mm0 mm 19.5 °C 20.5 °C 20 °C 19.4 °C 0 cm 0 min 6.7 W/m²
08:06 16 °C 7.7 °C 58 % 14 km/h (25 km/h) 0 mm0 mm 19.5 °C 20.5 °C 20 °C 19.4 °C 0 cm 0 min 6.3 W/m²
08:00 16.3 °C 7.5 °C 56 % 16 km/h (27 km/h) 0 mm0 mm 19.6 °C 20.6 °C 20 °C 19.4 °C 0 cm 0 min 6 W/m²
07:54 16.2 °C 7.7 °C 57 % 15 km/h (26 km/h) 0 mm0 mm 19.6 °C 20.6 °C 20 °C 19.4 °C 0 cm 0 min 5.5 W/m²
07:48 15.8 °C 7.8 °C 59 % 12 km/h (21 km/h) 0 mm0 mm 19.6 °C 20.6 °C 20 °C 19.4 °C 0 cm 0 min 4.6 W/m²
07:42 16 °C 7.7 °C 58 % 11 km/h (17 km/h) 0 mm0 mm 19.6 °C 20.6 °C 20 °C 19.4 °C 0 cm 0 min 4.1 W/m²
07:36 16.4 °C 7.6 °C 56 % 11 km/h (21 km/h) 0 mm0 mm 19.7 °C 20.6 °C 20 °C 19.4 °C 0 cm 0 min 2.1 W/m²
07:30 16.7 °C 7.6 °C 55 % 15 km/h (26 km/h) 0 mm0 mm 19.7 °C 20.6 °C 20 °C 19.4 °C 0 cm 0 min 0 W/m²
07:24 16.7 °C 7.6 °C 55 % 16 km/h (26 km/h) 0 mm0 mm 19.7 °C 20.7 °C 20 °C 19.4 °C 0 cm 0 min 0 W/m²
07:18 16.2 °C 7.7 °C 57 % 13 km/h (22 km/h) 0 mm0 mm 19.8 °C 20.7 °C 20 °C 19.4 °C 0 cm 0 min 0 W/m²
07:12 15.4 °C 7.4 °C 59 % 11 km/h (17 km/h) 0 mm0 mm 19.8 °C 20.7 °C 20 °C 19.4 °C 0 cm 0 min 0 W/m²
07:06 15.6 °C 7.9 °C 60 % 11 km/h (18 km/h) 0 mm0 mm 19.8 °C 20.7 °C 20 °C 19.4 °C 0 cm 0 min 0 W/m²
07:00 16.3 °C 7.5 °C 56 % 13 km/h (19 km/h) 0 mm0 mm 19.8 °C 20.7 °C 20 °C 19.4 °C 0 cm 0 min 0 W/m²
06:54 16.4 °C 7.6 °C 56 % 12 km/h (19 km/h) 0 mm0 mm 19.9 °C 20.7 °C 20 °C 19.4 °C 0 cm 0 min 0 W/m²
06:48 15.5 °C 7.8 °C 60 % 11 km/h (18 km/h) 0 mm0 mm 19.9 °C 20.8 °C 20 °C 19.4 °C 0 cm 0 min 0 W/m²
06:42 15.4 °C 7.7 °C 60 % 10 km/h (16 km/h) 0 mm0 mm 19.9 °C 20.8 °C 20 °C 19.4 °C 0 cm 0 min 0 W/m²
06:36 15.2 °C 7.5 °C 60 % 9 km/h (17 km/h) 0 mm0 mm 19.9 °C 20.8 °C 20 °C 19.4 °C 0 cm 0 min 0 W/m²
06:30 15.5 °C 7.5 °C 59 % 10 km/h (18 km/h) 0 mm0 mm 20 °C 20.8 °C 20 °C 19.4 °C 0 cm 0 min 0 W/m²
06:24 15.5 °C 7.5 °C 59 % 7 km/h (18 km/h) 0 mm0 mm 20 °C 20.8 °C 20 °C 19.4 °C 0 cm 0 min 0 W/m²
06:18 16.1 °C 7.6 °C 57 % 8 km/h (15 km/h) 0 mm0 mm 20 °C 20.9 °C 20 °C 19.4 °C 0 cm 0 min 0 W/m²
06:12 16.5 °C 7.4 °C 55 % 11 km/h (18 km/h) 0 mm0 mm 20 °C 20.9 °C 20 °C 19.4 °C 0 cm 0 min 0 W/m²
06:06 16.9 °C 7.5 °C 54 % 12 km/h (22 km/h) 0 mm0 mm 20.1 °C 20.9 °C 20 °C 19.4 °C 0 cm 0 min 0 W/m²
06:00 17.3 °C 7.3 °C 52 % 12 km/h (22 km/h) 0 mm0 mm 20.1 °C 20.9 °C 20 °C 19.4 °C 0 cm 0 min 0 W/m²
05:54 17.4 °C 7.4 °C 52 % 14 km/h (24 km/h) 0 mm0 mm 20.2 °C 20.9 °C 20 °C 19.4 °C 0 cm 0 min 0 W/m²
05:48 17.4 °C 7.7 °C 53 % 16 km/h (28 km/h) 0 mm0 mm 20.2 °C 20.9 °C 20 °C 19.4 °C 0 cm 0 min 0 W/m²
05:42 17.5 °C 7.5 °C 52 % 15 km/h (28 km/h) 0 mm0 mm 20.2 °C 21 °C 20 °C 19.4 °C 0 cm 0 min 0 W/m²
05:36 17.1 °C 7.4 °C 53 % 12 km/h (24 km/h) 0 mm0 mm 20.2 °C 21 °C 20 °C 19.4 °C 0 cm 0 min 0 W/m²
05:30 17.4 °C 7.4 °C 52 % 14 km/h (22 km/h) 0 mm0 mm 20.3 °C 21 °C 20 °C 19.4 °C 0 cm 0 min 0 W/m²
05:24 17.7 °C 7.4 °C 51 % 14 km/h (21 km/h) 0 mm0 mm 20.3 °C 21 °C 20 °C 19.4 °C 0 cm 0 min 0 W/m²
05:18 17.6 °C 7.3 °C 51 % 16 km/h (27 km/h) 0 mm0 mm 20.3 °C 21 °C 20 °C 19.4 °C 0 cm 0 min 0 W/m²
05:12 17.7 °C 7.7 °C 52 % 17 km/h (30 km/h) 0 mm0 mm 20.3 °C 21 °C 20 °C 19.4 °C 0 cm 0 min 0 W/m²
05:06 17.6 °C 7.6 °C 52 % 14 km/h (25 km/h) 0 mm0 mm 20.4 °C 21.1 °C 20 °C 19.4 °C 0 cm 0 min 0 W/m²
05:00 17.6 °C 7.6 °C 52 % 13 km/h (24 km/h) 0 mm0 mm 20.4 °C 21.1 °C 20 °C 19.4 °C 0 cm 0 min 0 W/m²
04:54 17.7 °C 7.7 °C 52 % 13 km/h (25 km/h) 0 mm0 mm 20.4 °C 21.1 °C 20 °C 19.4 °C 0 cm 0 min 0 W/m²
04:48 17.7 °C 7.7 °C 52 % 13 km/h (25 km/h) 0 mm0 mm 20.5 °C 21.1 °C 20 °C 19.4 °C 0 cm 0 min 0 W/m²
04:42 17.8 °C 7.5 °C 51 % 12 km/h (21 km/h) 0 mm0 mm 20.5 °C 21.1 °C 20 °C 19.4 °C 0 cm 0 min 0 W/m²
04:36 17.7 °C 7.7 °C 52 % 15 km/h (23 km/h) 0 mm0 mm 20.5 °C 21.1 °C 20 °C 19.4 °C 0 cm 0 min 0 W/m²
04:30 17.7 °C 7.7 °C 52 % 14 km/h (23 km/h) 0 mm0 mm 20.6 °C 21.2 °C 20 °C 19.4 °C 0 cm 0 min 0 W/m²
04:24 17.7 °C 7.7 °C 52 % 15 km/h (22 km/h) 0 mm0 mm 20.6 °C 21.2 °C 19.9 °C 19.4 °C 0 cm 0 min 0 W/m²
04:18 17.6 °C 7.6 °C 52 % 15 km/h (23 km/h) 0 mm0 mm 20.6 °C 21.2 °C 20 °C 19.4 °C 0 cm 0 min 0 W/m²
04:12 17.9 °C 7.6 °C 51 % 15 km/h (23 km/h) 0 mm0 mm 20.7 °C 21.2 °C 19.9 °C 19.4 °C 0 cm 0 min 0 W/m²
04:06 18.2 °C 7.9 °C 51 % 15 km/h (28 km/h) 0 mm0 mm 20.7 °C 21.2 °C 19.9 °C 19.4 °C 0 cm 0 min 0 W/m²
04:00 18.1 °C 8.1 °C 52 % 18 km/h (30 km/h) 0 mm0 mm 20.7 °C 21.2 °C 19.9 °C 19.4 °C 0 cm 0 min 0 W/m²
03:54 18.1 °C 8.1 °C 52 % 19 km/h (30 km/h) 0 mm0 mm 20.8 °C 21.3 °C 19.9 °C 19.4 °C 0 cm 0 min 0 W/m²
03:48 18.2 °C 7.9 °C 51 % 18 km/h (30 km/h) 0 mm0 mm 20.8 °C 21.3 °C 19.9 °C 19.4 °C 0 cm 0 min 0 W/m²
03:42 18.1 °C 8.1 °C 52 % 20 km/h (31 km/h) 0 mm0 mm 20.8 °C 21.3 °C 19.9 °C 19.4 °C 0 cm 0 min 0 W/m²
03:36 18.1 °C 8.1 °C 52 % 19 km/h (31 km/h) 0 mm0 mm 20.9 °C 21.3 °C 19.9 °C 19.4 °C 0 cm 0 min 0 W/m²
03:30 17.4 °C 8.3 °C 55 % 14 km/h (25 km/h) 0 mm0 mm 20.9 °C 21.3 °C 19.9 °C 19.4 °C 0 cm 0 min 0 W/m²
03:24 17 °C 8.2 °C 56 % 14 km/h (22 km/h) 0 mm0 mm 20.9 °C 21.3 °C 19.9 °C 19.4 °C 0 cm 0 min 0 W/m²
03:18 16.9 °C 8.1 °C 56 % 13 km/h (22 km/h) 0 mm0 mm 20.9 °C 21.3 °C 19.9 °C 19.4 °C 0 cm 0 min 0 W/m²
03:12 16.7 °C 8.1 °C 57 % 12 km/h (16 km/h) 0 mm0 mm 21 °C 21.3 °C 19.9 °C 19.4 °C 0 cm 0 min 0 W/m²
03:06 16.8 °C 8.2 °C 57 % 12 km/h (17 km/h) 0 mm0 mm 21 °C 21.4 °C 19.9 °C 19.4 °C 0 cm 0 min 0 W/m²
03:00 17 °C 8.2 °C 56 % 13 km/h (19 km/h) 0 mm0 mm 21.1 °C 21.4 °C 19.9 °C 19.4 °C 0 cm 0 min 0 W/m²
02:54 17.3 °C 8.4 °C 56 % 13 km/h (23 km/h) 0 mm0 mm 21.1 °C 21.4 °C 19.9 °C 19.4 °C 0 cm 0 min 0 W/m²
02:48 17.9 °C 8.5 °C 54 % 15 km/h (23 km/h) 0 mm0 mm 21.1 °C 21.4 °C 19.9 °C 19.4 °C 0 cm 0 min 0 W/m²
02:42 18 °C 8.3 °C 53 % 14 km/h (21 km/h) 0 mm0 mm 21.2 °C 21.4 °C 19.9 °C 19.4 °C 0 cm 0 min 0 W/m²
02:36 17.9 °C 8.5 °C 54 % 14 km/h (23 km/h) 0 mm0 mm 21.2 °C 21.4 °C 19.9 °C 19.4 °C 0 cm 0 min 0 W/m²
02:30 18 °C 8.5 °C 54 % 15 km/h (23 km/h) 0 mm0 mm 21.2 °C 21.4 °C 19.9 °C 19.4 °C 0 cm 0 min 0 W/m²
02:24 17.9 °C 8.7 °C 55 % 14 km/h (20 km/h) 0 mm0 mm 21.3 °C 21.5 °C 19.9 °C 19.4 °C 0 cm 0 min 0 W/m²
02:18 17.3 °C 8.7 °C 57 % 13 km/h (19 km/h) 0 mm0 mm 21.3 °C 21.5 °C 19.9 °C 19.4 °C 0 cm 0 min 0 W/m²
02:12 16.4 °C 8.9 °C 61 % 10 km/h (15 km/h) 0 mm0 mm 21.3 °C 21.5 °C 19.9 °C 19.4 °C 0 cm 0 min 0 W/m²
02:06 16.5 °C 8.9 °C 61 % 8 km/h (12 km/h) 0 mm0 mm 21.4 °C 21.5 °C 19.9 °C 19.4 °C 0 cm 0 min 0 W/m²
02:00 16.6 °C 9 °C 61 % 7 km/h (11 km/h) 0 mm0 mm 21.4 °C 21.5 °C 19.9 °C 19.4 °C 0 cm 0 min 0 W/m²
01:54 16.8 °C 9 °C 60 % 5 km/h (10 km/h) 0 mm0 mm 21.4 °C 21.5 °C 19.9 °C 19.4 °C 0 cm 0 min 0 W/m²
01:48 17.4 °C 9 °C 58 % 4 km/h (10 km/h) 0 mm0 mm 21.5 °C 21.5 °C 19.9 °C 19.4 °C 0 cm 0 min 0 W/m²
01:42 17.9 °C 8.7 °C 55 % 9 km/h (17 km/h) 0 mm0 mm 21.5 °C 21.5 °C 19.9 °C 19.4 °C 0 cm 0 min 0 W/m²
01:36 18.3 °C 8.5 °C 53 % 11 km/h (17 km/h) 0 mm0 mm 21.5 °C 21.6 °C 19.9 °C 19.4 °C 0 cm 0 min 0 W/m²
01:30 18.2 °C 8.7 °C 54 % 11 km/h (16 km/h) 0 mm0 mm 21.6 °C 21.6 °C 19.9 °C 19.4 °C 0 cm 0 min 0 W/m²
01:24 17.9 °C 9 °C 56 % 11 km/h (16 km/h) 0 mm0 mm 21.6 °C 21.6 °C 19.9 °C 19.4 °C 0 cm 0 min 0 W/m²
01:18 17.2 °C 9.1 °C 59 % 9 km/h (15 km/h) 0 mm0 mm 21.6 °C 21.6 °C 19.9 °C 19.4 °C 0 cm 0 min 0 W/m²
01:12 16.8 °C 9.5 °C 62 % 8 km/h (12 km/h) 0 mm0 mm 21.7 °C 21.6 °C 19.8 °C 19.4 °C 0 cm 0 min 0 W/m²
01:06 16.6 °C 9.3 °C 62 % 8 km/h (12 km/h) 0 mm0 mm 21.7 °C 21.6 °C 19.8 °C 19.4 °C 0 cm 0 min 0 W/m²
01:00 17.2 °C 9.6 °C 61 % 8 km/h (11 km/h) 0 mm0 mm 21.7 °C 21.6 °C 19.8 °C 19.4 °C 0 cm 0 min 0 W/m²
00:54 18.1 °C 9.2 °C 56 % 9 km/h (13 km/h) 0 mm0 mm 21.8 °C 21.6 °C 19.8 °C 19.4 °C 0 cm 0 min 0 W/m²
00:48 18.4 °C 9.2 °C 55 % 9 km/h (12 km/h) 0 mm0 mm 21.8 °C 21.6 °C 19.8 °C 19.4 °C 0 cm 0 min 0 W/m²
00:42 17.7 °C 9.3 °C 58 % 8 km/h (11 km/h) 0 mm0 mm 21.9 °C 21.6 °C 19.8 °C 19.4 °C 0 cm 0 min 0 W/m²
00:36 17.4 °C 9.6 °C 60 % 6 km/h (9 km/h) 0 mm0 mm 21.9 °C 21.6 °C 19.8 °C 19.4 °C 0 cm 0 min 0 W/m²
00:30 17.3 °C 9.5 °C 60 % 2 km/h (7 km/h) 0 mm0 mm 21.9 °C 21.6 °C 19.8 °C 19.4 °C 0 cm 0 min 0 W/m²
00:24 17.4 °C 9.3 °C 59 % 0 km/h (3 km/h) 0 mm0 mm 22 °C 21.6 °C 19.8 °C 19.4 °C 0 cm 0 min 0 W/m²
00:18 17.7 °C 9.3 °C 58 % 0 km/h (4 km/h) 0 mm0 mm 22 °C 21.7 °C 19.8 °C 19.4 °C 0 cm 0 min 0 W/m²
00:12 17.9 °C 9.3 °C 57 % 3 km/h (5 km/h) 0 mm0 mm 22 °C 21.7 °C 19.8 °C 19.4 °C 0 cm 0 min 0 W/m²
00:06 18 °C 9.3 °C 57 % 2 km/h (5 km/h) 0 mm0 mm 22.1 °C 21.7 °C 19.8 °C 19.4 °C 0 cm 0 min 0 W/m²
00:00 18.2 °C 9.8 °C 58 % 4 km/h (10 km/h) 0 mm0 mm 22.1 °C 21.7 °C 19.8 °C 19.4 °C 0 cm 0 min 0 W/m²

Données via Météo-France

Relevés météo à Embrun

Cette page rassemble les observations de la station de Embrun : température, humidité, vent, précipitations et pression atmosphérique. Les graphiques facilitent le suivi de la journée, tandis que le tableau donne accès aux mesures horaires et infra-horaires disponibles.

Pour replacer ces mesures dans leur contexte, consultez la climatologie de Embrun ainsi que ses normales et records. Retrouvez aussi la carte des observations météo en temps réel.